sensor_id;sensor_type;location;lat;lon;timestamp;P1;durP1;ratioP1;P2;durP2;ratioP2
21769;SDS011;11046;49.558;8.674;2023-04-30T00:02:15;15.07;;;9.17;;
21769;SDS011;11046;49.558;8.674;2023-04-30T00:05:16;13.00;;;8.77;;
21769;SDS011;11046;49.558;8.674;2023-04-30T00:08:16;15.20;;;8.87;;
21769;SDS011;11046;49.558;8.674;2023-04-30T00:11:17;15.77;;;9.57;;
21769;SDS011;11046;49.558;8.674;2023-04-30T00:14:18;13.40;;;9.37;;
21769;SDS011;11046;49.558;8.674;2023-04-30T00:17:18;16.67;;;9.23;;
21769;SDS011;11046;49.558;8.674;2023-04-30T00:20:19;14.25;;;8.95;;
21769;SDS011;11046;49.558;8.674;2023-04-30T00:23:20;15.13;;;9.07;;
21769;SDS011;11046;49.558;8.674;2023-04-30T00:26:20;15.33;;;9.83;;
21769;SDS011;11046;49.558;8.674;2023-04-30T00:29:22;15.23;;;9.30;;
21769;SDS011;11046;49.558;8.674;2023-04-30T00:32:23;15.67;;;9.67;;
21769;SDS011;11046;49.558;8.674;2023-04-30T00:35:23;15.00;;;9.83;;
21769;SDS011;11046;49.558;8.674;2023-04-30T00:38:24;13.73;;;8.90;;
21769;SDS011;11046;49.558;8.674;2023-04-30T00:41:25;17.67;;;10.37;;
21769;SDS011;11046;49.558;8.674;2023-04-30T00:44:27;15.10;;;9.63;;
21769;SDS011;11046;49.558;8.674;2023-04-30T00:47:27;13.67;;;9.47;;
21769;SDS011;11046;49.558;8.674;2023-04-30T00:50:28;15.50;;;9.33;;
21769;SDS011;11046;49.558;8.674;2023-04-30T00:53:29;15.90;;;9.20;;
21769;SDS011;11046;49.558;8.674;2023-04-30T00:56:31;14.73;;;9.60;;
21769;SDS011;11046;49.558;8.674;2023-04-30T00:59:31;16.47;;;9.20;;
21769;SDS011;11046;49.558;8.674;2023-04-30T01:02:32;15.23;;;9.50;;
21769;SDS011;11046;49.558;8.674;2023-04-30T01:05:33;14.40;;;8.93;;
21769;SDS011;11046;49.558;8.674;2023-04-30T01:08:33;16.20;;;9.27;;
21769;SDS011;11046;49.558;8.674;2023-04-30T01:18:38;13.80;;;9.23;;
21769;SDS011;11046;49.558;8.674;2023-04-30T01:21:45;15.83;;;9.27;;
21769;SDS011;11046;49.558;8.674;2023-04-30T01:25:05;16.03;;;10.13;;
21769;SDS011;11046;49.558;8.674;2023-04-30T01:28:23;15.53;;;9.13;;
21769;SDS011;11046;49.558;8.674;2023-04-30T01:31:27;16.00;;;9.27;;
21769;SDS011;11046;49.558;8.674;2023-04-30T01:34:29;16.40;;;10.07;;
21769;SDS011;11046;49.558;8.674;2023-04-30T01:37:31;13.70;;;9.10;;
21769;SDS011;11046;49.558;8.674;2023-04-30T01:40:47;14.03;;;9.20;;
21769;SDS011;11046;49.558;8.674;2023-04-30T01:44:03;15.20;;;9.37;;
21769;SDS011;11046;49.558;8.674;2023-04-30T01:50:48;18.00;;;10.00;;
21769;SDS011;11046;49.558;8.674;2023-04-30T01:53:52;14.93;;;9.73;;
21769;SDS011;11046;49.558;8.674;2023-04-30T01:57:02;16.93;;;9.93;;
21769;SDS011;11046;49.558;8.674;2023-04-30T02:00:06;15.57;;;10.00;;
21769;SDS011;11046;49.558;8.674;2023-04-30T02:06:36;15.40;;;9.60;;
21769;SDS011;11046;49.558;8.674;2023-04-30T02:09:37;16.10;;;9.60;;
21769;SDS011;11046;49.558;8.674;2023-04-30T02:12:38;17.77;;;10.53;;
21769;SDS011;11046;49.558;8.674;2023-04-30T02:15:39;17.33;;;10.80;;
21769;SDS011;11046;49.558;8.674;2023-04-30T02:18:40;18.27;;;10.73;;
21769;SDS011;11046;49.558;8.674;2023-04-30T02:21:40;17.23;;;10.13;;
21769;SDS011;11046;49.558;8.674;2023-04-30T02:24:41;15.93;;;9.90;;
21769;SDS011;11046;49.558;8.674;2023-04-30T02:27:41;15.03;;;9.67;;
21769;SDS011;11046;49.558;8.674;2023-04-30T02:30:43;15.83;;;10.00;;
21769;SDS011;11046;49.558;8.674;2023-04-30T02:33:43;15.03;;;10.23;;
21769;SDS011;11046;49.558;8.674;2023-04-30T02:36:44;17.37;;;10.17;;
21769;SDS011;11046;49.558;8.674;2023-04-30T02:39:44;15.20;;;9.47;;
21769;SDS011;11046;49.558;8.674;2023-04-30T02:42:45;14.73;;;9.60;;
21769;SDS011;11046;49.558;8.674;2023-04-30T02:45:46;17.17;;;10.63;;
21769;SDS011;11046;49.558;8.674;2023-04-30T02:48:47;15.90;;;10.10;;
21769;SDS011;11046;49.558;8.674;2023-04-30T02:51:47;21.03;;;10.17;;
21769;SDS011;11046;49.558;8.674;2023-04-30T02:54:48;16.37;;;10.40;;
21769;SDS011;11046;49.558;8.674;2023-04-30T02:57:48;18.50;;;9.83;;
21769;SDS011;11046;49.558;8.674;2023-04-30T03:00:49;20.13;;;10.97;;
21769;SDS011;11046;49.558;8.674;2023-04-30T03:03:50;16.40;;;10.67;;
21769;SDS011;11046;49.558;8.674;2023-04-30T03:06:50;17.20;;;10.77;;
21769;SDS011;11046;49.558;8.674;2023-04-30T03:09:51;20.20;;;10.77;;
21769;SDS011;11046;49.558;8.674;2023-04-30T03:12:52;18.63;;;10.80;;
21769;SDS011;11046;49.558;8.674;2023-04-30T03:15:56;17.63;;;11.57;;
21769;SDS011;11046;49.558;8.674;2023-04-30T03:19:01;18.13;;;11.07;;
21769;SDS011;11046;49.558;8.674;2023-04-30T03:22:02;18.47;;;12.10;;
21769;SDS011;11046;49.558;8.674;2023-04-30T03:25:02;18.53;;;11.37;;
21769;SDS011;11046;49.558;8.674;2023-04-30T03:28:03;20.10;;;11.67;;
21769;SDS011;11046;49.558;8.674;2023-04-30T03:31:04;18.83;;;11.10;;
21769;SDS011;11046;49.558;8.674;2023-04-30T03:34:04;18.43;;;11.20;;
21769;SDS011;11046;49.558;8.674;2023-04-30T03:37:05;20.67;;;12.20;;
21769;SDS011;11046;49.558;8.674;2023-04-30T03:40:06;17.60;;;11.40;;
21769;SDS011;11046;49.558;8.674;2023-04-30T03:43:07;18.87;;;12.17;;
21769;SDS011;11046;49.558;8.674;2023-04-30T03:46:07;18.47;;;12.13;;
21769;SDS011;11046;49.558;8.674;2023-04-30T03:49:08;18.07;;;11.83;;
21769;SDS011;11046;49.558;8.674;2023-04-30T03:52:09;20.70;;;11.60;;
21769;SDS011;11046;49.558;8.674;2023-04-30T03:55:10;22.80;;;12.70;;
21769;SDS011;11046;49.558;8.674;2023-04-30T03:58:11;21.50;;;12.67;;
21769;SDS011;11046;49.558;8.674;2023-04-30T04:01:12;18.27;;;11.60;;
21769;SDS011;11046;49.558;8.674;2023-04-30T04:04:12;18.00;;;12.07;;
21769;SDS011;11046;49.558;8.674;2023-04-30T04:07:13;18.43;;;11.30;;
21769;SDS011;11046;49.558;8.674;2023-04-30T04:10:14;19.30;;;11.50;;
21769;SDS011;11046;49.558;8.674;2023-04-30T04:13:15;17.47;;;11.70;;
21769;SDS011;11046;49.558;8.674;2023-04-30T04:16:16;20.27;;;12.07;;
21769;SDS011;11046;49.558;8.674;2023-04-30T04:19:17;21.30;;;11.57;;
21769;SDS011;11046;49.558;8.674;2023-04-30T04:22:19;21.07;;;11.57;;
21769;SDS011;11046;49.558;8.674;2023-04-30T04:25:20;19.50;;;11.10;;
21769;SDS011;11046;49.558;8.674;2023-04-30T04:28:24;18.13;;;11.10;;
21769;SDS011;11046;49.558;8.674;2023-04-30T04:31:25;20.70;;;11.73;;
21769;SDS011;11046;49.558;8.674;2023-04-30T04:34:26;19.80;;;11.53;;
21769;SDS011;11046;49.558;8.674;2023-04-30T04:37:26;16.13;;;11.10;;
21769;SDS011;11046;49.558;8.674;2023-04-30T04:40:27;16.77;;;11.17;;
21769;SDS011;11046;49.558;8.674;2023-04-30T04:43:27;14.53;;;10.13;;
21769;SDS011;11046;49.558;8.674;2023-04-30T04:46:31;17.30;;;10.93;;
21769;SDS011;11046;49.558;8.674;2023-04-30T04:49:34;17.07;;;10.63;;
21769;SDS011;11046;49.558;8.674;2023-04-30T04:52:35;18.00;;;10.90;;
21769;SDS011;11046;49.558;8.674;2023-04-30T04:55:36;18.70;;;10.60;;
21769;SDS011;11046;49.558;8.674;2023-04-30T04:58:36;16.90;;;11.00;;
21769;SDS011;11046;49.558;8.674;2023-04-30T05:01:38;15.20;;;10.33;;
21769;SDS011;11046;49.558;8.674;2023-04-30T05:04:39;17.80;;;10.10;;
21769;SDS011;11046;49.558;8.674;2023-04-30T05:07:40;18.03;;;10.23;;
21769;SDS011;11046;49.558;8.674;2023-04-30T05:10:41;15.13;;;10.13;;
21769;SDS011;11046;49.558;8.674;2023-04-30T05:13:42;17.73;;;10.93;;
21769;SDS011;11046;49.558;8.674;2023-04-30T05:16:43;16.30;;;10.10;;
21769;SDS011;11046;49.558;8.674;2023-04-30T05:19:43;13.50;;;9.90;;
21769;SDS011;11046;49.558;8.674;2023-04-30T05:22:46;16.93;;;10.70;;
21769;SDS011;11046;49.558;8.674;2023-04-30T05:25:50;15.30;;;10.70;;
21769;SDS011;11046;49.558;8.674;2023-04-30T05:28:51;15.67;;;9.40;;
21769;SDS011;11046;49.558;8.674;2023-04-30T05:31:52;16.23;;;9.60;;
21769;SDS011;11046;49.558;8.674;2023-04-30T05:34:53;15.73;;;9.90;;
21769;SDS011;11046;49.558;8.674;2023-04-30T05:37:54;15.77;;;9.60;;
21769;SDS011;11046;49.558;8.674;2023-04-30T05:40:56;15.53;;;9.70;;
21769;SDS011;11046;49.558;8.674;2023-04-30T05:43:57;14.50;;;9.47;;
21769;SDS011;11046;49.558;8.674;2023-04-30T05:46:58;14.87;;;9.50;;
21769;SDS011;11046;49.558;8.674;2023-04-30T05:49:58;17.37;;;10.37;;
21769;SDS011;11046;49.558;8.674;2023-04-30T05:52:59;16.57;;;9.53;;
21769;SDS011;11046;49.558;8.674;2023-04-30T05:56:00;19.37;;;10.13;;
21769;SDS011;11046;49.558;8.674;2023-04-30T05:59:00;13.50;;;8.93;;
21769;SDS011;11046;49.558;8.674;2023-04-30T06:02:01;18.63;;;9.57;;
21769;SDS011;11046;49.558;8.674;2023-04-30T06:05:02;16.17;;;9.67;;
21769;SDS011;11046;49.558;8.674;2023-04-30T06:08:02;12.27;;;9.43;;
21769;SDS011;11046;49.558;8.674;2023-04-30T06:11:03;13.50;;;8.97;;
21769;SDS011;11046;49.558;8.674;2023-04-30T06:14:04;15.27;;;9.17;;
21769;SDS011;11046;49.558;8.674;2023-04-30T06:17:05;12.90;;;8.43;;
21769;SDS011;11046;49.558;8.674;2023-04-30T06:20:06;13.63;;;9.13;;
21769;SDS011;11046;49.558;8.674;2023-04-30T06:23:07;12.67;;;8.57;;
21769;SDS011;11046;49.558;8.674;2023-04-30T06:26:08;16.05;;;8.35;;
21769;SDS011;11046;49.558;8.674;2023-04-30T06:29:08;12.20;;;8.65;;
21769;SDS011;11046;49.558;8.674;2023-04-30T06:32:09;13.02;;;7.90;;
21769;SDS011;11046;49.558;8.674;2023-04-30T06:35:10;16.05;;;8.90;;
21769;SDS011;11046;49.558;8.674;2023-04-30T06:38:10;13.23;;;8.15;;
21769;SDS011;11046;49.558;8.674;2023-04-30T06:41:11;11.90;;;8.55;;
21769;SDS011;11046;49.558;8.674;2023-04-30T06:44:12;11.90;;;8.20;;
21769;SDS011;11046;49.558;8.674;2023-04-30T06:47:12;14.35;;;8.02;;
21769;SDS011;11046;49.558;8.674;2023-04-30T06:50:13;10.52;;;8.00;;
21769;SDS011;11046;49.558;8.674;2023-04-30T06:53:14;14.25;;;7.70;;
21769;SDS011;11046;49.558;8.674;2023-04-30T06:56:15;10.52;;;7.28;;
21769;SDS011;11046;49.558;8.674;2023-04-30T06:59:15;11.73;;;7.63;;
21769;SDS011;11046;49.558;8.674;2023-04-30T07:02:16;8.63;;;6.97;;
21769;SDS011;11046;49.558;8.674;2023-04-30T07:05:17;9.32;;;7.00;;
21769;SDS011;11046;49.558;8.674;2023-04-30T07:08:18;9.32;;;7.15;;
21769;SDS011;11046;49.558;8.674;2023-04-30T07:11:18;10.95;;;7.00;;
21769;SDS011;11046;49.558;8.674;2023-04-30T07:14:19;11.82;;;7.18;;
21769;SDS011;11046;49.558;8.674;2023-04-30T07:17:20;11.55;;;6.68;;
21769;SDS011;11046;49.558;8.674;2023-04-30T07:20:20;9.30;;;6.60;;
21769;SDS011;11046;49.558;8.674;2023-04-30T07:23:21;13.95;;;6.57;;
21769;SDS011;11046;49.558;8.674;2023-04-30T07:26:21;9.30;;;6.28;;
21769;SDS011;11046;49.558;8.674;2023-04-30T07:29:24;8.88;;;6.47;;
21769;SDS011;11046;49.558;8.674;2023-04-30T07:32:25;11.73;;;6.47;;
21769;SDS011;11046;49.558;8.674;2023-04-30T07:35:26;9.88;;;5.97;;
21769;SDS011;11046;49.558;8.674;2023-04-30T07:38:26;8.07;;;5.68;;
21769;SDS011;11046;49.558;8.674;2023-04-30T07:41:28;9.05;;;6.20;;
21769;SDS011;11046;49.558;8.674;2023-04-30T07:44:29;8.25;;;5.78;;
21769;SDS011;11046;49.558;8.674;2023-04-30T07:47:30;12.70;;;6.00;;
21769;SDS011;11046;49.558;8.674;2023-04-30T07:50:31;10.77;;;6.25;;
21769;SDS011;11046;49.558;8.674;2023-04-30T07:53:32;10.00;;;6.03;;
21769;SDS011;11046;49.558;8.674;2023-04-30T07:56:33;11.43;;;6.28;;
21769;SDS011;11046;49.558;8.674;2023-04-30T07:59:34;10.57;;;5.53;;
21769;SDS011;11046;49.558;8.674;2023-04-30T08:02:34;8.52;;;5.70;;
21769;SDS011;11046;49.558;8.674;2023-04-30T08:05:36;10.90;;;5.60;;
21769;SDS011;11046;49.558;8.674;2023-04-30T08:08:37;10.07;;;5.53;;
21769;SDS011;11046;49.558;8.674;2023-04-30T08:11:38;7.07;;;4.95;;
21769;SDS011;11046;49.558;8.674;2023-04-30T08:14:39;8.23;;;5.20;;
21769;SDS011;11046;49.558;8.674;2023-04-30T08:17:39;7.50;;;4.72;;
21769;SDS011;11046;49.558;8.674;2023-04-30T08:20:40;9.35;;;4.93;;
21769;SDS011;11046;49.558;8.674;2023-04-30T08:23:41;8.98;;;5.00;;
21769;SDS011;11046;49.558;8.674;2023-04-30T08:26:41;7.88;;;4.90;;
21769;SDS011;11046;49.558;8.674;2023-04-30T08:29:42;7.47;;;4.70;;
21769;SDS011;11046;49.558;8.674;2023-04-30T08:32:42;7.50;;;4.47;;
21769;SDS011;11046;49.558;8.674;2023-04-30T08:35:43;7.50;;;4.72;;
21769;SDS011;11046;49.558;8.674;2023-04-30T08:38:44;10.20;;;4.65;;
21769;SDS011;11046;49.558;8.674;2023-04-30T08:41:45;5.88;;;4.07;;
21769;SDS011;11046;49.558;8.674;2023-04-30T08:44:50;8.30;;;4.55;;
21769;SDS011;11046;49.558;8.674;2023-04-30T08:47:51;6.90;;;4.18;;
21769;SDS011;11046;49.558;8.674;2023-04-30T08:50:51;7.70;;;4.20;;
21769;SDS011;11046;49.558;8.674;2023-04-30T08:53:53;8.43;;;4.53;;
21769;SDS011;11046;49.558;8.674;2023-04-30T08:56:55;8.45;;;4.15;;
21769;SDS011;11046;49.558;8.674;2023-04-30T08:59:56;6.32;;;4.18;;
21769;SDS011;11046;49.558;8.674;2023-04-30T09:02:56;6.55;;;4.03;;
21769;SDS011;11046;49.558;8.674;2023-04-30T09:05:57;4.45;;;3.50;;
21769;SDS011;11046;49.558;8.674;2023-04-30T09:08:58;4.80;;;3.58;;
21769;SDS011;11046;49.558;8.674;2023-04-30T09:12:14;6.35;;;3.75;;
21769;SDS011;11046;49.558;8.674;2023-04-30T09:15:19;4.68;;;3.42;;
21769;SDS011;11046;49.558;8.674;2023-04-30T09:18:20;7.47;;;3.97;;
21769;SDS011;11046;49.558;8.674;2023-04-30T09:21:33;6.03;;;3.85;;
21769;SDS011;11046;49.558;8.674;2023-04-30T09:24:45;7.00;;;3.63;;
21769;SDS011;11046;49.558;8.674;2023-04-30T09:27:47;7.03;;;3.70;;
21769;SDS011;11046;49.558;8.674;2023-04-30T09:30:48;4.88;;;3.50;;
21769;SDS011;11046;49.558;8.674;2023-04-30T09:33:49;5.38;;;4.20;;
21769;SDS011;11046;49.558;8.674;2023-04-30T09:36:50;4.82;;;3.72;;
21769;SDS011;11046;49.558;8.674;2023-04-30T09:39:53;7.45;;;3.70;;
21769;SDS011;11046;49.558;8.674;2023-04-30T09:42:58;3.95;;;3.08;;
21769;SDS011;11046;49.558;8.674;2023-04-30T09:45:59;7.32;;;3.67;;
21769;SDS011;11046;49.558;8.674;2023-04-30T09:49:00;5.03;;;3.47;;
21769;SDS011;11046;49.558;8.674;2023-04-30T09:52:03;6.07;;;3.50;;
21769;SDS011;11046;49.558;8.674;2023-04-30T09:55:04;5.50;;;3.63;;
21769;SDS011;11046;49.558;8.674;2023-04-30T09:58:06;5.32;;;3.65;;
21769;SDS011;11046;49.558;8.674;2023-04-30T10:01:07;4.90;;;3.17;;
21769;SDS011;11046;49.558;8.674;2023-04-30T10:04:10;5.63;;;3.38;;
21769;SDS011;11046;49.558;8.674;2023-04-30T10:07:11;4.68;;;3.40;;
21769;SDS011;11046;49.558;8.674;2023-04-30T10:10:18;5.22;;;3.22;;
21769;SDS011;11046;49.558;8.674;2023-04-30T10:13:20;5.40;;;3.30;;
21769;SDS011;11046;49.558;8.674;2023-04-30T10:16:26;3.42;;;2.70;;
21769;SDS011;11046;49.558;8.674;2023-04-30T10:19:42;6.10;;;3.30;;
21769;SDS011;11046;49.558;8.674;2023-04-30T10:22:47;5.93;;;3.30;;
21769;SDS011;11046;49.558;8.674;2023-04-30T10:25:49;5.10;;;3.15;;
21769;SDS011;11046;49.558;8.674;2023-04-30T10:28:50;4.55;;;2.92;;
21769;SDS011;11046;49.558;8.674;2023-04-30T10:31:52;4.20;;;3.08;;
21769;SDS011;11046;49.558;8.674;2023-04-30T10:35:04;7.07;;;2.58;;
21769;SDS011;11046;49.558;8.674;2023-04-30T10:41:17;4.25;;;2.70;;
21769;SDS011;11046;49.558;8.674;2023-04-30T10:44:22;3.67;;;3.13;;
21769;SDS011;11046;49.558;8.674;2023-04-30T10:47:27;4.40;;;2.70;;
21769;SDS011;11046;49.558;8.674;2023-04-30T10:50:29;4.28;;;2.65;;
21769;SDS011;11046;49.558;8.674;2023-04-30T10:53:30;3.97;;;2.65;;
21769;SDS011;11046;49.558;8.674;2023-04-30T10:56:31;2.90;;;2.55;;
21769;SDS011;11046;49.558;8.674;2023-04-30T10:59:33;4.15;;;2.17;;
21769;SDS011;11046;49.558;8.674;2023-04-30T11:02:40;4.30;;;2.30;;
21769;SDS011;11046;49.558;8.674;2023-04-30T11:05:46;3.35;;;2.50;;
21769;SDS011;11046;49.558;8.674;2023-04-30T11:08:46;4.00;;;3.17;;
21769;SDS011;11046;49.558;8.674;2023-04-30T11:11:47;3.00;;;2.53;;
21769;SDS011;11046;49.558;8.674;2023-04-30T11:15:12;3.22;;;2.13;;
21769;SDS011;11046;49.558;8.674;2023-04-30T11:18:15;4.15;;;2.42;;
21769;SDS011;11046;49.558;8.674;2023-04-30T11:21:18;3.10;;;2.30;;
21769;SDS011;11046;49.558;8.674;2023-04-30T11:24:20;2.25;;;2.05;;
21769;SDS011;11046;49.558;8.674;2023-04-30T11:27:24;7.35;;;2.50;;
21769;SDS011;11046;49.558;8.674;2023-04-30T11:30:26;2.65;;;2.20;;
21769;SDS011;11046;49.558;8.674;2023-04-30T11:33:29;3.15;;;2.17;;
21769;SDS011;11046;49.558;8.674;2023-04-30T11:36:30;5.70;;;2.30;;
21769;SDS011;11046;49.558;8.674;2023-04-30T11:39:32;2.40;;;1.92;;
21769;SDS011;11046;49.558;8.674;2023-04-30T11:42:42;8.57;;;2.50;;
21769;SDS011;11046;49.558;8.674;2023-04-30T11:45:43;2.83;;;2.10;;
21769;SDS011;11046;49.558;8.674;2023-04-30T11:48:44;3.45;;;2.17;;
21769;SDS011;11046;49.558;8.674;2023-04-30T11:51:49;1.90;;;1.70;;
21769;SDS011;11046;49.558;8.674;2023-04-30T11:54:53;3.30;;;2.13;;
21769;SDS011;11046;49.558;8.674;2023-04-30T11:57:55;3.20;;;2.15;;
21769;SDS011;11046;49.558;8.674;2023-04-30T12:00:58;2.38;;;2.05;;
21769;SDS011;11046;49.558;8.674;2023-04-30T12:04:00;3.63;;;2.00;;
21769;SDS011;11046;49.558;8.674;2023-04-30T12:07:06;5.15;;;2.38;;
21769;SDS011;11046;49.558;8.674;2023-04-30T12:10:07;2.47;;;1.60;;
21769;SDS011;11046;49.558;8.674;2023-04-30T12:13:12;2.33;;;1.73;;
21769;SDS011;11046;49.558;8.674;2023-04-30T12:16:14;2.70;;;1.95;;
21769;SDS011;11046;49.558;8.674;2023-04-30T12:19:15;2.45;;;1.95;;
21769;SDS011;11046;49.558;8.674;2023-04-30T12:22:19;4.22;;;1.83;;
21769;SDS011;11046;49.558;8.674;2023-04-30T12:25:20;2.30;;;1.83;;
21769;SDS011;11046;49.558;8.674;2023-04-30T12:28:22;2.55;;;1.70;;
21769;SDS011;11046;49.558;8.674;2023-04-30T12:31:22;2.33;;;1.70;;
21769;SDS011;11046;49.558;8.674;2023-04-30T12:34:25;3.55;;;1.95;;
21769;SDS011;11046;49.558;8.674;2023-04-30T12:37:26;2.60;;;2.00;;
21769;SDS011;11046;49.558;8.674;2023-04-30T12:40:26;2.22;;;1.50;;
21769;SDS011;11046;49.558;8.674;2023-04-30T12:43:27;2.70;;;1.67;;
21769;SDS011;11046;49.558;8.674;2023-04-30T12:46:27;2.40;;;1.70;;
21769;SDS011;11046;49.558;8.674;2023-04-30T12:49:28;2.70;;;1.75;;
21769;SDS011;11046;49.558;8.674;2023-04-30T12:52:32;1.70;;;1.60;;
21769;SDS011;11046;49.558;8.674;2023-04-30T12:55:33;2.10;;;1.60;;
21769;SDS011;11046;49.558;8.674;2023-04-30T12:58:36;4.47;;;1.80;;
21769;SDS011;11046;49.558;8.674;2023-04-30T13:01:42;3.03;;;1.67;;
21769;SDS011;11046;49.558;8.674;2023-04-30T13:04:44;2.35;;;1.80;;
21769;SDS011;11046;49.558;8.674;2023-04-30T13:07:45;1.88;;;1.67;;
21769;SDS011;11046;49.558;8.674;2023-04-30T13:10:46;2.60;;;1.92;;
21769;SDS011;11046;49.558;8.674;2023-04-30T13:13:47;3.97;;;1.42;;
21769;SDS011;11046;49.558;8.674;2023-04-30T13:16:48;4.25;;;1.55;;
21769;SDS011;11046;49.558;8.674;2023-04-30T13:19:48;3.55;;;2.00;;
21769;SDS011;11046;49.558;8.674;2023-04-30T13:22:49;1.60;;;1.50;;
21769;SDS011;11046;49.558;8.674;2023-04-30T13:25:50;3.72;;;1.73;;
21769;SDS011;11046;49.558;8.674;2023-04-30T13:28:51;2.13;;;1.50;;
21769;SDS011;11046;49.558;8.674;2023-04-30T13:31:52;2.53;;;1.50;;
21769;SDS011;11046;49.558;8.674;2023-04-30T13:34:52;2.95;;;1.60;;
21769;SDS011;11046;49.558;8.674;2023-04-30T13:37:57;1.45;;;1.35;;
21769;SDS011;11046;49.558;8.674;2023-04-30T13:40:58;2.90;;;1.60;;
21769;SDS011;11046;49.558;8.674;2023-04-30T13:43:59;1.88;;;1.38;;
21769;SDS011;11046;49.558;8.674;2023-04-30T13:46:59;2.15;;;1.83;;
21769;SDS011;11046;49.558;8.674;2023-04-30T13:50:00;1.50;;;1.40;;
21769;SDS011;11046;49.558;8.674;2023-04-30T13:53:02;2.08;;;1.50;;
21769;SDS011;11046;49.558;8.674;2023-04-30T13:56:02;2.20;;;1.55;;
21769;SDS011;11046;49.558;8.674;2023-04-30T13:59:03;2.25;;;1.40;;
21769;SDS011;11046;49.558;8.674;2023-04-30T14:02:04;2.00;;;1.30;;
21769;SDS011;11046;49.558;8.674;2023-04-30T14:05:06;1.65;;;1.40;;
21769;SDS011;11046;49.558;8.674;2023-04-30T14:08:06;1.48;;;1.35;;
21769;SDS011;11046;49.558;8.674;2023-04-30T14:11:07;1.50;;;1.40;;
21769;SDS011;11046;49.558;8.674;2023-04-30T14:14:07;8.02;;;1.40;;
21769;SDS011;11046;49.558;8.674;2023-04-30T14:17:08;3.15;;;1.50;;
21769;SDS011;11046;49.558;8.674;2023-04-30T14:20:09;2.00;;;1.38;;
21769;SDS011;11046;49.558;8.674;2023-04-30T14:23:10;2.50;;;1.65;;
21769;SDS011;11046;49.558;8.674;2023-04-30T14:26:11;2.75;;;1.52;;
21769;SDS011;11046;49.558;8.674;2023-04-30T14:29:12;2.10;;;1.52;;
21769;SDS011;11046;49.558;8.674;2023-04-30T14:32:13;1.80;;;1.45;;
21769;SDS011;11046;49.558;8.674;2023-04-30T14:35:13;3.53;;;1.55;;
21769;SDS011;11046;49.558;8.674;2023-04-30T14:38:14;1.58;;;1.48;;
21769;SDS011;11046;49.558;8.674;2023-04-30T14:41:14;1.90;;;1.45;;
21769;SDS011;11046;49.558;8.674;2023-04-30T14:44:15;3.30;;;1.67;;
21769;SDS011;11046;49.558;8.674;2023-04-30T14:47:15;2.45;;;1.60;;
21769;SDS011;11046;49.558;8.674;2023-04-30T14:50:16;1.92;;;1.73;;
21769;SDS011;11046;49.558;8.674;2023-04-30T14:53:17;2.15;;;1.45;;
21769;SDS011;11046;49.558;8.674;2023-04-30T14:56:17;2.47;;;1.80;;
21769;SDS011;11046;49.558;8.674;2023-04-30T14:59:18;2.58;;;1.40;;
21769;SDS011;11046;49.558;8.674;2023-04-30T15:02:19;2.38;;;1.55;;
21769;SDS011;11046;49.558;8.674;2023-04-30T15:05:20;1.98;;;1.33;;
21769;SDS011;11046;49.558;8.674;2023-04-30T15:08:21;1.92;;;1.30;;
21769;SDS011;11046;49.558;8.674;2023-04-30T15:11:21;1.52;;;1.42;;
21769;SDS011;11046;49.558;8.674;2023-04-30T15:14:23;1.55;;;1.45;;
21769;SDS011;11046;49.558;8.674;2023-04-30T15:17:23;2.70;;;1.25;;
21769;SDS011;11046;49.558;8.674;2023-04-30T15:20:24;4.15;;;1.52;;
21769;SDS011;11046;49.558;8.674;2023-04-30T15:23:24;1.48;;;1.35;;
21769;SDS011;11046;49.558;8.674;2023-04-30T15:26:26;1.63;;;1.40;;
21769;SDS011;11046;49.558;8.674;2023-04-30T15:29:27;1.95;;;1.40;;
21769;SDS011;11046;49.558;8.674;2023-04-30T15:32:28;1.50;;;1.40;;
21769;SDS011;11046;49.558;8.674;2023-04-30T15:35:28;3.55;;;1.52;;
21769;SDS011;11046;49.558;8.674;2023-04-30T15:38:30;1.60;;;1.40;;
21769;SDS011;11046;49.558;8.674;2023-04-30T15:41:30;2.38;;;1.65;;
21769;SDS011;11046;49.558;8.674;2023-04-30T15:44:31;1.75;;;1.50;;
21769;SDS011;11046;49.558;8.674;2023-04-30T15:47:32;2.25;;;1.48;;
21769;SDS011;11046;49.558;8.674;2023-04-30T15:50:32;2.15;;;1.40;;
21769;SDS011;11046;49.558;8.674;2023-04-30T15:53:33;2.85;;;1.70;;
21769;SDS011;11046;49.558;8.674;2023-04-30T15:56:33;2.47;;;1.42;;
21769;SDS011;11046;49.558;8.674;2023-04-30T15:59:34;4.03;;;1.30;;
21769;SDS011;11046;49.558;8.674;2023-04-30T16:02:35;1.20;;;1.10;;
21769;SDS011;11046;49.558;8.674;2023-04-30T16:05:35;4.80;;;1.50;;
21769;SDS011;11046;49.558;8.674;2023-04-30T16:08:39;1.20;;;1.10;;
21769;SDS011;11046;49.558;8.674;2023-04-30T16:11:40;1.48;;;1.38;;
21769;SDS011;11046;49.558;8.674;2023-04-30T16:14:41;1.65;;;1.17;;
21769;SDS011;11046;49.558;8.674;2023-04-30T16:17:41;2.10;;;1.30;;
21769;SDS011;11046;49.558;8.674;2023-04-30T16:20:42;1.20;;;1.10;;
21769;SDS011;11046;49.558;8.674;2023-04-30T16:23:46;1.75;;;1.40;;
21769;SDS011;11046;49.558;8.674;2023-04-30T16:26:46;2.05;;;1.40;;
21769;SDS011;11046;49.558;8.674;2023-04-30T16:29:47;2.10;;;1.48;;
21769;SDS011;11046;49.558;8.674;2023-04-30T16:32:47;2.75;;;1.42;;
21769;SDS011;11046;49.558;8.674;2023-04-30T16:35:48;2.58;;;1.60;;
21769;SDS011;11046;49.558;8.674;2023-04-30T16:38:48;1.88;;;1.77;;
21769;SDS011;11046;49.558;8.674;2023-04-30T16:41:49;2.35;;;1.77;;
21769;SDS011;11046;49.558;8.674;2023-04-30T16:44:49;2.53;;;1.60;;
21769;SDS011;11046;49.558;8.674;2023-04-30T16:47:50;1.40;;;1.30;;
21769;SDS011;11046;49.558;8.674;2023-04-30T16:50:50;2.35;;;1.50;;
21769;SDS011;11046;49.558;8.674;2023-04-30T16:53:51;3.00;;;2.10;;
21769;SDS011;11046;49.558;8.674;2023-04-30T16:56:52;4.60;;;2.67;;
21769;SDS011;11046;49.558;8.674;2023-04-30T16:59:52;2.47;;;1.70;;
21769;SDS011;11046;49.558;8.674;2023-04-30T17:02:53;3.72;;;1.80;;
21769;SDS011;11046;49.558;8.674;2023-04-30T17:05:53;1.85;;;1.58;;
21769;SDS011;11046;49.558;8.674;2023-04-30T17:08:54;1.98;;;1.40;;
21769;SDS011;11046;49.558;8.674;2023-04-30T17:11:55;2.47;;;1.80;;
21769;SDS011;11046;49.558;8.674;2023-04-30T17:14:55;3.80;;;1.58;;
21769;SDS011;11046;49.558;8.674;2023-04-30T17:17:56;4.03;;;1.52;;
21769;SDS011;11046;49.558;8.674;2023-04-30T17:20:57;2.65;;;1.40;;
21769;SDS011;11046;49.558;8.674;2023-04-30T17:23:57;2.05;;;1.30;;
21769;SDS011;11046;49.558;8.674;2023-04-30T17:26:58;3.05;;;1.13;;
21769;SDS011;11046;49.558;8.674;2023-04-30T17:30:00;2.15;;;1.30;;
21769;SDS011;11046;49.558;8.674;2023-04-30T17:33:01;1.35;;;1.25;;
21769;SDS011;11046;49.558;8.674;2023-04-30T17:36:03;2.08;;;1.52;;
21769;SDS011;11046;49.558;8.674;2023-04-30T17:39:04;5.80;;;1.52;;
21769;SDS011;11046;49.558;8.674;2023-04-30T17:42:05;4.70;;;1.20;;
21769;SDS011;11046;49.558;8.674;2023-04-30T17:45:07;2.33;;;1.48;;
21769;SDS011;11046;49.558;8.674;2023-04-30T17:48:07;3.28;;;1.25;;
21769;SDS011;11046;49.558;8.674;2023-04-30T17:51:08;12.55;;;2.00;;
21769;SDS011;11046;49.558;8.674;2023-04-30T17:54:09;1.77;;;1.40;;
21769;SDS011;11046;49.558;8.674;2023-04-30T17:57:09;1.98;;;1.55;;
21769;SDS011;11046;49.558;8.674;2023-04-30T18:00:10;3.20;;;1.50;;
21769;SDS011;11046;49.558;8.674;2023-04-30T18:03:14;3.10;;;1.80;;
21769;SDS011;11046;49.558;8.674;2023-04-30T18:06:14;5.25;;;1.85;;
21769;SDS011;11046;49.558;8.674;2023-04-30T18:09:15;6.63;;;2.15;;
21769;SDS011;11046;49.558;8.674;2023-04-30T18:12:16;8.27;;;1.85;;
21769;SDS011;11046;49.558;8.674;2023-04-30T18:15:17;6.53;;;2.00;;
21769;SDS011;11046;49.558;8.674;2023-04-30T18:18:18;1.67;;;1.42;;
21769;SDS011;11046;49.558;8.674;2023-04-30T18:21:18;6.10;;;1.80;;
21769;SDS011;11046;49.558;8.674;2023-04-30T18:24:19;7.13;;;1.40;;